createdAt,value
2019-01-26T00:00:37.796Z,23.73
2019-01-26T00:03:09.426Z,22.60
2019-01-26T00:05:40.979Z,19.85
2019-01-26T00:08:12.509Z,20.00
2019-01-26T00:10:44.038Z,24.02
2019-01-26T00:13:15.551Z,22.35
2019-01-26T00:15:47.084Z,26.95
2019-01-26T00:18:20.916Z,15.10
2019-01-26T00:20:52.433Z,21.50
2019-01-26T00:23:23.982Z,25.35
2019-01-26T00:25:55.493Z,21.70
2019-01-26T00:28:27.082Z,21.07
2019-01-26T00:30:58.547Z,24.52
2019-01-26T00:33:30.091Z,17.25
2019-01-26T00:36:03.408Z,21.37
2019-01-26T00:38:36.671Z,16.77
2019-01-26T00:41:08.237Z,21.23
2019-01-26T00:43:39.776Z,23.12
2019-01-26T00:46:11.283Z,21.40
2019-01-26T00:48:46.791Z,23.00
2019-01-26T00:51:19.360Z,22.22
2019-01-26T00:53:51.926Z,21.48
2019-01-26T00:56:24.838Z,20.97
2019-01-26T00:59:00.115Z,23.02
2019-01-26T01:01:32.639Z,20.95
2019-01-26T01:04:04.178Z,21.97
2019-01-26T01:06:35.687Z,20.70
2019-01-26T01:09:08.306Z,19.90
2019-01-26T01:11:39.818Z,21.10
2019-01-26T01:14:11.393Z,20.80
2019-01-26T01:16:42.922Z,22.30
2019-01-26T01:19:14.465Z,25.92
2019-01-26T01:21:46.024Z,21.45
2019-01-26T01:24:17.620Z,20.95
2019-01-26T01:26:49.131Z,30.08
2019-01-26T01:29:20.668Z,22.87
2019-01-26T01:31:53.181Z,31.02
2019-01-26T01:34:25.702Z,23.67
2019-01-26T01:36:57.452Z,23.40
2019-01-26T01:39:30.112Z,25.95
2019-01-26T01:42:01.688Z,23.87
2019-01-26T01:44:34.204Z,21.50
2019-01-26T01:47:05.736Z,26.85
2019-01-26T01:49:37.291Z,20.77
2019-01-26T01:52:08.808Z,29.32
2019-01-26T01:54:40.336Z,29.50
2019-01-26T01:57:11.871Z,34.13
2019-01-26T01:59:43.377Z,29.05
2019-01-26T02:02:14.919Z,25.23
2019-01-26T02:04:46.426Z,27.37
2019-01-26T02:07:18.012Z,26.90
2019-01-26T02:09:49.593Z,29.15
2019-01-26T02:12:21.122Z,27.70
2019-01-26T02:14:52.666Z,35.33
2019-01-26T02:17:24.189Z,31.65
2019-01-26T02:19:56.792Z,29.70
2019-01-26T02:22:28.335Z,31.33
2019-01-26T02:25:00.883Z,31.62
2019-01-26T02:27:33.395Z,34.20
2019-01-26T02:30:05.939Z,32.13
2019-01-26T02:32:38.436Z,34.35
2019-01-26T02:35:10.960Z,32.25
2019-01-26T02:37:42.486Z,28.80
2019-01-26T02:40:18.822Z,33.55
2019-01-26T02:42:51.909Z,32.85
2019-01-26T02:45:23.458Z,34.88
2019-01-26T02:47:54.964Z,34.80
2019-01-26T02:50:26.517Z,38.45
2019-01-26T02:52:58.098Z,27.60
2019-01-26T02:55:29.608Z,30.40
2019-01-26T02:58:02.224Z,26.30
2019-01-26T03:00:33.765Z,33.05
2019-01-26T03:03:05.266Z,30.88
2019-01-26T03:05:36.821Z,33.95
2019-01-26T03:08:09.918Z,28.60
2019-01-26T03:10:41.506Z,30.30
2019-01-26T03:13:13.036Z,30.10
2019-01-26T03:15:44.583Z,36.50
2019-01-26T03:18:19.641Z,30.70
2019-01-26T03:20:51.208Z,27.37
2019-01-26T03:23:24.988Z,28.95
2019-01-26T03:25:56.537Z,33.28
2019-01-26T03:28:28.064Z,30.27
2019-01-26T03:31:00.745Z,30.45
2019-01-26T03:33:32.274Z,30.02
2019-01-26T03:36:04.065Z,35.65
2019-01-26T03:38:36.585Z,31.95
2019-01-26T03:41:08.184Z,30.45
2019-01-26T03:43:39.738Z,36.98
2019-01-26T03:46:11.625Z,36.40
2019-01-26T03:48:43.157Z,34.23
2019-01-26T03:51:14.701Z,36.13
2019-01-26T03:53:46.335Z,36.55
2019-01-26T03:56:17.875Z,29.50
2019-01-26T03:58:49.394Z,28.12
2019-01-26T04:01:20.907Z,33.45
2019-01-26T04:03:52.450Z,37.23
2019-01-26T04:06:24.005Z,30.85
2019-01-26T04:08:55.700Z,34.05
2019-01-26T04:11:27.232Z,39.42
2019-01-26T04:13:59.117Z,43.45
2019-01-26T04:16:30.624Z,34.48
2019-01-26T04:19:02.438Z,31.75
2019-01-26T04:21:34.016Z,28.15
2019-01-26T04:24:07.143Z,34.35
2019-01-26T04:26:38.759Z,34.13
2019-01-26T04:29:11.397Z,36.35
2019-01-26T04:31:43.110Z,35.38
2019-01-26T04:34:14.640Z,38.75
2019-01-26T04:36:47.385Z,33.20
2019-01-26T04:39:18.896Z,39.45
2019-01-26T04:41:51.442Z,35.17
2019-01-26T04:44:24.086Z,37.88
2019-01-26T04:46:56.594Z,35.98
2019-01-26T04:49:28.148Z,34.33
2019-01-26T04:51:59.677Z,37.42
2019-01-26T04:54:31.209Z,33.05
2019-01-26T04:57:02.758Z,32.90
2019-01-26T04:59:37.986Z,45.30
2019-01-26T05:02:09.509Z,39.78
2019-01-26T05:04:42.133Z,32.67
2019-01-26T05:07:17.441Z,36.73
2019-01-26T05:09:50.027Z,37.88
2019-01-26T05:12:22.561Z,35.48
2019-01-26T05:14:55.107Z,37.23
2019-01-26T05:17:28.354Z,40.50
2019-01-26T05:20:01.061Z,37.67
2019-01-26T05:22:33.590Z,39.80
2019-01-26T05:25:05.148Z,38.88
2019-01-26T05:27:36.766Z,43.50
2019-01-26T05:30:09.381Z,39.27
2019-01-26T05:32:42.560Z,40.43
2019-01-26T05:35:13.922Z,42.73
2019-01-26T05:37:45.533Z,38.28
2019-01-26T05:40:17.985Z,42.40
2019-01-26T05:42:49.842Z,41.53
2019-01-26T05:45:22.116Z,43.00
2019-01-26T05:47:57.482Z,38.55
2019-01-26T05:50:30.256Z,34.55
2019-01-26T05:53:05.289Z,38.83
2019-01-26T05:55:36.937Z,33.80
2019-01-26T05:58:08.451Z,38.63
2019-01-26T06:00:40.022Z,34.38
2019-01-26T06:03:11.574Z,37.80
2019-01-26T06:05:43.965Z,36.85
2019-01-26T06:08:15.614Z,39.38
2019-01-26T06:10:48.117Z,43.70
2019-01-26T06:13:19.646Z,38.98
2019-01-26T06:15:51.281Z,48.13
2019-01-26T06:18:24.379Z,38.67
2019-01-26T06:20:57.229Z,46.23
2019-01-26T06:23:28.761Z,35.17
2019-01-26T06:26:06.301Z,43.85
2019-01-26T06:28:38.805Z,39.98
2019-01-26T06:31:11.478Z,36.77
2019-01-26T06:33:43.021Z,38.40
2019-01-26T06:36:14.583Z,47.80
2019-01-26T06:38:46.125Z,41.25
2019-01-26T06:41:17.656Z,37.73
2019-01-26T06:43:49.516Z,40.70
2019-01-26T06:46:21.068Z,38.38
2019-01-26T06:48:53.650Z,43.28
2019-01-26T06:51:25.210Z,43.65
2019-01-26T06:53:56.755Z,48.17
2019-01-26T06:56:29.944Z,43.68
2019-01-26T06:59:01.457Z,45.75
2019-01-26T07:01:33.012Z,44.60
2019-01-26T07:04:04.538Z,41.68
2019-01-26T07:06:37.152Z,47.05
2019-01-26T07:09:09.390Z,47.20
2019-01-26T07:11:41.039Z,50.60
2019-01-26T07:14:12.553Z,50.23
2019-01-26T07:16:44.298Z,44.38
2019-01-26T07:19:15.800Z,48.20
2019-01-26T07:21:48.308Z,50.45
2019-01-26T07:24:20.831Z,49.60
2019-01-26T07:26:52.479Z,54.53
2019-01-26T07:29:24.972Z,58.20
2019-01-26T07:31:56.515Z,56.20
2019-01-26T07:34:28.039Z,53.20
2019-01-26T07:37:00.016Z,57.48
2019-01-26T07:39:34.391Z,47.80
2019-01-26T07:42:05.943Z,54.93
2019-01-26T07:44:37.464Z,52.35
2019-01-26T07:47:09.020Z,51.50
2019-01-26T07:49:40.544Z,49.30
2019-01-26T07:52:13.179Z,50.73
2019-01-26T07:54:45.065Z,53.42
2019-01-26T07:57:17.571Z,55.40
2019-01-26T07:59:49.091Z,53.08
2019-01-26T08:02:20.965Z,51.10
2019-01-26T08:04:52.635Z,53.58
2019-01-26T08:07:24.171Z,48.42
2019-01-26T08:09:55.720Z,51.30
2019-01-26T08:12:27.278Z,57.38
2019-01-26T08:14:59.980Z,45.00
2019-01-26T08:17:31.561Z,57.73
2019-01-26T08:20:03.212Z,51.80
2019-01-26T08:22:34.703Z,55.75
2019-01-26T08:25:06.818Z,52.45
2019-01-26T08:27:38.349Z,52.13
2019-01-26T08:30:16.881Z,53.13
2019-01-26T08:32:52.170Z,58.60
2019-01-26T08:35:23.716Z,49.95
2019-01-26T08:37:56.161Z,57.03
2019-01-26T08:40:27.797Z,50.38
2019-01-26T08:42:59.337Z,45.58
2019-01-26T08:45:31.063Z,45.30
2019-01-26T08:48:03.586Z,49.88
2019-01-26T08:50:35.145Z,49.45
2019-01-26T08:53:06.658Z,48.58
2019-01-26T08:55:41.887Z,50.95
2019-01-26T08:58:13.424Z,48.60
2019-01-26T09:00:44.980Z,53.98
2019-01-26T09:03:26.368Z,50.63
2019-01-26T09:06:01.856Z,50.12
2019-01-26T09:08:33.387Z,48.15
2019-01-26T09:11:06.001Z,46.90
2019-01-26T09:13:37.543Z,49.42
2019-01-26T09:16:09.056Z,53.65
2019-01-26T09:18:40.647Z,42.43
2019-01-26T09:21:13.072Z,50.48
2019-01-26T09:23:44.657Z,55.45
2019-01-26T09:26:16.196Z,47.73
2019-01-26T09:28:47.816Z,54.95
2019-01-26T09:31:19.335Z,49.60
2019-01-26T09:33:51.920Z,55.00
2019-01-26T09:36:24.725Z,47.50
2019-01-26T09:38:56.276Z,56.25
2019-01-26T09:41:27.804Z,46.80
2019-01-26T09:43:59.374Z,50.30
2019-01-26T09:46:31.512Z,44.48
2019-01-26T09:49:06.708Z,45.83
2019-01-26T09:51:38.241Z,50.38
2019-01-26T09:54:09.764Z,45.83
2019-01-26T09:56:41.318Z,46.75
2019-01-26T09:59:13.658Z,45.38
2019-01-26T10:01:45.303Z,47.10
2019-01-26T10:04:17.129Z,40.70
2019-01-26T10:06:48.659Z,47.30
2019-01-26T10:09:20.185Z,40.92
2019-01-26T10:11:52.669Z,42.13
2019-01-26T10:14:24.302Z,39.48
2019-01-26T10:16:55.827Z,38.98
2019-01-26T10:19:27.343Z,46.88
2019-01-26T10:21:58.936Z,36.77
2019-01-26T10:24:30.617Z,42.93
2019-01-26T10:27:02.213Z,39.33
2019-01-26T10:29:33.788Z,38.80
2019-01-26T10:32:05.487Z,37.20
2019-01-26T10:34:36.996Z,35.60
2019-01-26T10:37:09.861Z,37.23
2019-01-26T10:39:41.416Z,31.80
2019-01-26T10:42:14.079Z,34.50
2019-01-26T10:44:45.621Z,35.30
2019-01-26T10:47:17.173Z,35.63
2019-01-26T10:49:48.686Z,33.18
2019-01-26T10:52:20.377Z,33.02
2019-01-26T10:54:51.912Z,33.65
2019-01-26T10:57:24.696Z,37.90
2019-01-26T10:59:57.519Z,38.80
2019-01-26T11:02:29.237Z,38.88
2019-01-26T11:05:01.708Z,39.10
2019-01-26T11:07:33.203Z,33.10
2019-01-26T11:10:04.759Z,33.63
2019-01-26T11:12:36.330Z,31.95
2019-01-26T11:15:08.918Z,36.17
2019-01-26T11:17:40.450Z,35.15
2019-01-26T11:20:13.046Z,36.20
2019-01-26T11:22:44.585Z,38.25
2019-01-26T11:25:16.112Z,34.10
2019-01-26T11:27:47.652Z,36.83
2019-01-26T11:30:23.665Z,37.20
2019-01-26T11:32:55.224Z,37.25
2019-01-26T11:35:27.346Z,35.03
2019-01-26T11:37:58.864Z,34.05
2019-01-26T11:40:30.413Z,39.03
2019-01-26T11:43:01.955Z,37.53
2019-01-26T11:45:46.715Z,34.78
2019-01-26T11:48:28.533Z,40.20
2019-01-26T11:51:13.363Z,36.05
2019-01-26T11:53:44.876Z,38.55
2019-01-26T11:56:20.260Z,34.73
2019-01-26T11:58:52.018Z,38.13
2019-01-26T12:01:40.514Z,38.98
2019-01-26T12:04:25.303Z,35.83
2019-01-26T12:06:58.874Z,31.73
2019-01-26T12:09:30.405Z,32.83
2019-01-26T12:12:01.942Z,37.70
2019-01-26T12:14:33.525Z,30.72
2019-01-26T12:17:05.069Z,34.60
2019-01-26T12:19:36.610Z,29.57
2019-01-26T12:22:08.150Z,33.78
2019-01-26T12:24:39.701Z,28.60
2019-01-26T12:27:11.228Z,27.40
2019-01-26T12:29:42.802Z,31.65
2019-01-26T12:32:14.426Z,31.97
2019-01-26T12:34:46.072Z,28.77
2019-01-26T12:37:17.615Z,28.05
2019-01-26T12:39:49.258Z,29.23
2019-01-26T12:42:20.790Z,28.75
2019-01-26T12:44:52.323Z,29.48
2019-01-26T12:47:24.420Z,34.50
2019-01-26T12:49:56.022Z,31.17
2019-01-26T12:52:27.537Z,28.38
2019-01-26T12:55:00.399Z,31.40
2019-01-26T12:57:31.919Z,30.15
2019-01-26T13:00:03.512Z,30.30
2019-01-26T13:02:35.036Z,34.65
2019-01-26T13:05:07.043Z,31.62
2019-01-26T13:07:38.554Z,34.65
2019-01-26T13:10:11.155Z,32.20
2019-01-26T13:12:42.668Z,32.80
2019-01-26T13:15:15.390Z,37.55
2019-01-26T13:17:47.019Z,31.80
2019-01-26T13:20:18.565Z,33.90
2019-01-26T13:22:50.084Z,36.80
2019-01-26T13:25:21.591Z,34.85
2019-01-26T13:27:54.202Z,33.38
2019-01-26T13:30:26.030Z,33.90
2019-01-26T13:32:57.546Z,34.60
2019-01-26T13:35:29.081Z,34.78
2019-01-26T13:38:03.879Z,34.48
2019-01-26T13:40:36.131Z,32.23
2019-01-26T13:43:07.694Z,31.95
2019-01-26T13:45:39.219Z,34.13
2019-01-26T13:48:10.737Z,37.15
2019-01-26T13:50:42.277Z,37.42
2019-01-26T13:53:13.787Z,35.78
2019-01-26T13:55:45.362Z,32.15
2019-01-26T13:58:16.965Z,33.48
2019-01-26T14:00:48.499Z,39.23
2019-01-26T14:03:20.003Z,35.55
2019-01-26T14:05:51.837Z,39.92
2019-01-26T14:08:25.467Z,36.77
2019-01-26T14:10:58.080Z,37.55
2019-01-26T14:13:29.605Z,36.65
2019-01-26T14:16:01.342Z,41.30
2019-01-26T14:18:32.850Z,35.68
2019-01-26T14:21:04.486Z,42.53
2019-01-26T14:23:36.010Z,35.13
2019-01-26T14:26:07.544Z,44.35
2019-01-26T14:28:39.095Z,37.53
2019-01-26T14:31:10.705Z,39.88
2019-01-26T14:33:42.211Z,36.33
2019-01-26T14:36:13.814Z,37.98
2019-01-26T14:38:45.494Z,36.23
2019-01-26T14:41:18.022Z,41.33
2019-01-26T14:43:49.516Z,39.95
2019-01-26T14:46:21.052Z,41.50
2019-01-26T14:48:53.582Z,38.60
2019-01-26T14:51:26.261Z,37.45
2019-01-26T14:53:57.770Z,46.05
2019-01-26T14:56:29.655Z,37.95
2019-01-26T14:59:01.186Z,41.50
2019-01-26T15:01:32.764Z,36.93
2019-01-26T15:04:05.235Z,34.23
2019-01-26T15:06:36.760Z,35.52
2019-01-26T15:09:10.358Z,34.63
2019-01-26T15:11:41.975Z,39.03
2019-01-26T15:14:13.483Z,39.08
2019-01-26T15:16:45.020Z,33.95
2019-01-26T15:19:16.530Z,36.10
2019-01-26T15:21:48.092Z,37.20
2019-01-26T15:24:19.629Z,36.35
2019-01-26T15:26:51.255Z,35.95
2019-01-26T15:29:24.357Z,39.13
2019-01-26T15:31:55.924Z,35.33
2019-01-26T15:34:28.490Z,42.78
2019-01-26T15:37:00.712Z,41.13
2019-01-26T15:39:32.502Z,34.40
2019-01-26T15:42:04.038Z,38.40
2019-01-26T15:44:36.562Z,35.78
2019-01-26T15:47:08.129Z,33.35
2019-01-26T15:49:39.853Z,36.35
2019-01-26T15:52:11.363Z,38.28
2019-01-26T15:54:42.971Z,34.85
2019-01-26T15:57:14.549Z,37.20
2019-01-26T15:59:53.129Z,36.50
2019-01-26T16:02:18.757Z,35.75
2019-01-26T16:04:50.571Z,36.45
2019-01-26T16:07:23.053Z,33.83
2019-01-26T16:09:54.693Z,35.60
2019-01-26T16:12:27.199Z,38.80
2019-01-26T16:14:58.821Z,34.53
2019-01-26T16:17:30.403Z,37.63
2019-01-26T16:20:02.021Z,30.80
2019-01-26T16:22:33.531Z,40.20
2019-01-26T16:25:05.065Z,33.15
2019-01-26T16:27:36.691Z,36.63
2019-01-26T16:30:12.269Z,37.93
2019-01-26T16:32:43.870Z,38.58
2019-01-26T16:35:16.187Z,38.83
2019-01-26T16:37:48.118Z,38.38
2019-01-26T16:40:20.819Z,34.78
2019-01-26T16:42:52.376Z,35.30
2019-01-26T16:45:25.151Z,34.40
2019-01-26T16:47:56.744Z,34.58
2019-01-26T16:50:28.900Z,32.30
2019-01-26T16:53:00.462Z,42.25
2019-01-26T16:55:31.958Z,37.63
2019-01-26T16:58:03.492Z,41.02
2019-01-26T17:00:46.305Z,34.67
2019-01-26T17:03:21.877Z,41.02
2019-01-26T17:05:53.410Z,35.23
2019-01-26T17:08:25.101Z,32.20
2019-01-26T17:10:58.252Z,33.23
2019-01-26T17:13:30.187Z,35.30
2019-01-26T17:16:01.760Z,35.38
2019-01-26T17:18:33.283Z,37.20
2019-01-26T17:21:04.829Z,38.98
2019-01-26T17:23:36.386Z,35.90
2019-01-26T17:26:07.902Z,33.63
2019-01-26T17:28:39.532Z,34.03
2019-01-26T17:31:12.039Z,33.33
2019-01-26T17:33:43.663Z,36.28
2019-01-26T17:36:15.175Z,35.63
2019-01-26T17:38:46.716Z,36.25
2019-01-26T17:41:18.220Z,38.30
2019-01-26T17:43:49.775Z,33.05
2019-01-26T17:46:21.289Z,33.00
2019-01-26T17:48:52.831Z,39.65
2019-01-26T17:51:25.409Z,33.73
2019-01-26T17:53:56.934Z,33.42
2019-01-26T17:56:28.474Z,32.03
2019-01-26T17:59:00.085Z,34.18
2019-01-26T18:04:20.428Z,30.90
2019-01-26T18:06:52.927Z,33.33
2019-01-26T18:09:25.435Z,31.80
2019-01-26T18:11:56.952Z,35.63
2019-01-26T18:14:29.459Z,33.10
2019-01-26T18:17:01.956Z,34.92
2019-01-26T18:19:34.568Z,37.42
2019-01-26T18:22:07.060Z,31.15
2019-01-26T18:24:39.676Z,34.33
2019-01-26T18:27:12.146Z,31.10
2019-01-26T18:29:45.920Z,34.38
2019-01-26T18:32:18.421Z,30.90
2019-01-26T18:34:52.151Z,30.08
2019-01-26T18:37:25.182Z,32.73
2019-01-26T18:39:57.738Z,34.18
2019-01-26T18:42:30.239Z,34.33
2019-01-26T18:45:02.771Z,35.03
2019-01-26T18:47:35.268Z,33.33
2019-01-26T18:50:13.127Z,32.40
2019-01-26T18:52:45.669Z,34.40
2019-01-26T18:55:18.178Z,32.20
2019-01-26T18:57:50.659Z,30.97
2019-01-26T19:00:24.781Z,33.98
2019-01-26T19:02:59.374Z,34.08
2019-01-26T19:05:33.270Z,37.80
2019-01-26T19:08:05.778Z,34.80
2019-01-26T19:10:37.343Z,36.63
2019-01-26T19:13:09.843Z,31.12
2019-01-26T19:15:42.342Z,33.45
2019-01-26T19:18:14.836Z,33.78
2019-01-26T19:20:47.359Z,35.98
2019-01-26T19:23:19.839Z,29.27
2019-01-26T19:25:52.365Z,30.65
2019-01-26T19:28:24.859Z,34.40
2019-01-26T19:30:57.377Z,33.35
2019-01-26T19:33:29.874Z,34.98
2019-01-26T19:36:02.408Z,38.38
2019-01-26T19:38:34.908Z,31.80
2019-01-26T19:41:07.412Z,31.33
2019-01-26T19:43:39.864Z,34.18
2019-01-26T19:46:12.432Z,33.88
2019-01-26T19:48:44.924Z,27.93
2019-01-26T19:51:17.452Z,35.20
2019-01-26T19:53:49.948Z,38.40
2019-01-26T19:56:22.455Z,33.83
2019-01-26T19:58:54.947Z,34.80
2019-01-26T20:01:27.447Z,38.25
2019-01-26T20:03:59.958Z,29.72
2019-01-26T20:06:32.513Z,33.53
2019-01-26T20:09:09.409Z,34.63
2019-01-26T20:11:41.052Z,29.23
2019-01-26T20:14:13.544Z,36.68
2019-01-26T20:16:46.151Z,32.88
2019-01-26T20:19:18.683Z,34.67
2019-01-26T20:21:51.170Z,33.30
2019-01-26T20:24:23.668Z,35.43
2019-01-26T20:26:56.221Z,32.55
2019-01-26T20:29:28.658Z,37.65
2019-01-26T20:32:01.208Z,35.83
2019-01-26T20:34:33.703Z,34.20
2019-01-26T20:37:06.241Z,35.73
2019-01-26T20:39:38.723Z,32.40
2019-01-26T20:42:11.256Z,42.95
2019-01-26T20:44:43.757Z,35.20
2019-01-26T20:47:16.267Z,32.40
2019-01-26T20:49:48.777Z,31.30
2019-01-26T20:52:21.280Z,33.95
2019-01-26T20:54:53.724Z,33.23
2019-01-26T20:57:26.247Z,32.75
2019-01-26T20:59:58.783Z,36.42
2019-01-26T21:02:31.299Z,31.97
2019-01-26T21:05:04.365Z,37.23
2019-01-26T21:07:36.343Z,32.30
2019-01-26T21:10:10.906Z,31.62
2019-01-26T21:12:43.455Z,39.70
2019-01-26T21:15:15.947Z,31.33
2019-01-26T21:17:48.422Z,30.90
2019-01-26T21:20:22.367Z,34.65
2019-01-26T21:22:54.828Z,39.55
2019-01-26T21:25:27.368Z,33.05
2019-01-26T21:27:59.968Z,37.17
2019-01-26T21:30:31.482Z,34.08
2019-01-26T21:33:03.985Z,33.78
2019-01-26T21:35:36.470Z,30.95
2019-01-26T21:38:08.999Z,33.42
2019-01-26T21:40:41.490Z,36.75
2019-01-26T21:43:13.102Z,36.98
2019-01-26T21:45:45.607Z,39.55
2019-01-26T21:48:18.068Z,30.95
2019-01-26T21:50:50.611Z,36.70
2019-01-26T21:53:24.375Z,37.58
2019-01-26T21:55:56.872Z,28.87
2019-01-26T21:58:28.440Z,32.28
2019-01-26T22:01:00.931Z,33.00
2019-01-26T22:03:33.450Z,34.85
2019-01-26T22:06:05.906Z,29.77
2019-01-26T22:08:38.510Z,33.15
2019-01-26T22:11:11.639Z,29.25
2019-01-26T22:13:44.207Z,30.25
2019-01-26T22:16:16.704Z,33.50
2019-01-26T22:18:49.206Z,31.02
2019-01-26T22:21:21.695Z,28.05
2019-01-26T22:23:53.224Z,30.72
2019-01-26T22:26:25.720Z,32.53
2019-01-26T22:28:58.241Z,33.20
2019-01-26T22:31:30.728Z,29.72
2019-01-26T22:34:03.253Z,33.25
2019-01-26T22:36:35.777Z,29.67
2019-01-26T22:39:09.811Z,28.95
2019-01-26T22:41:42.349Z,31.42
2019-01-26T22:44:14.887Z,24.72
2019-01-26T22:46:47.379Z,25.80
2019-01-26T22:49:19.883Z,29.05
2019-01-26T22:51:53.403Z,24.65
2019-01-26T22:54:26.154Z,25.45
2019-01-26T22:56:59.645Z,25.90
2019-01-26T22:59:32.161Z,30.57
2019-01-26T23:02:05.721Z,25.60
2019-01-26T23:04:43.235Z,23.27
2019-01-26T23:07:23.931Z,27.40
2019-01-26T23:10:02.537Z,25.95
2019-01-26T23:12:37.166Z,25.05
2019-01-26T23:15:40.016Z,22.70
2019-01-26T23:18:33.645Z,25.35
2019-01-26T23:21:14.051Z,26.77
2019-01-26T23:24:03.470Z,22.67
2019-01-26T23:26:44.944Z,24.20
2019-01-26T23:29:25.608Z,25.60
2019-01-26T23:31:58.116Z,24.95
2019-01-26T23:34:30.619Z,22.13
2019-01-26T23:37:03.483Z,21.65
2019-01-26T23:39:35.975Z,25.62
2019-01-26T23:42:08.479Z,23.02
2019-01-26T23:44:41.020Z,24.40
2019-01-26T23:47:14.533Z,23.65
2019-01-26T23:49:47.068Z,22.82
2019-01-26T23:52:20.843Z,22.62
2019-01-26T23:54:54.609Z,22.22
2019-01-26T23:57:27.099Z,19.92
2019-01-26T23:59:59.580Z,24.82
